createdAt,value
2023-05-10T00:00:32.579Z,949.8538
2023-05-10T00:01:34.268Z,949.8469
2023-05-10T00:02:35.854Z,949.8416
2023-05-10T00:03:37.501Z,949.8331
2023-05-10T00:04:39.121Z,949.8246
2023-05-10T00:05:40.789Z,949.7900
2023-05-10T00:06:42.377Z,949.7977
2023-05-10T00:07:44.033Z,949.7900
2023-05-10T00:08:45.655Z,949.7861
2023-05-10T00:09:47.305Z,949.7662
2023-05-10T00:10:48.989Z,949.7577
2023-05-10T00:11:50.558Z,949.7800
2023-05-10T00:12:52.239Z,949.7877
2023-05-10T00:13:53.815Z,949.7877
2023-05-10T00:14:55.488Z,949.8046
2023-05-10T00:15:57.156Z,949.8138
2023-05-10T00:16:58.824Z,949.8369
2023-05-10T00:18:00.500Z,949.8200
2023-05-10T00:19:01.990Z,949.8323
2023-05-10T00:20:03.740Z,949.8323
2023-05-10T00:21:05.385Z,949.8231
2023-05-10T00:22:07.009Z,949.8300
2023-05-10T00:23:08.652Z,949.8285
2023-05-10T00:24:10.349Z,949.8577
2023-05-10T00:25:11.977Z,949.8615
2023-05-10T00:26:13.623Z,949.8730
2023-05-10T00:27:15.239Z,949.8984
2023-05-10T00:28:16.862Z,949.9208
2023-05-10T00:29:18.464Z,949.9069
2023-05-10T00:30:20.097Z,949.9116
2023-05-10T00:31:21.744Z,949.9039
2023-05-10T00:32:23.503Z,949.9077
2023-05-10T00:33:25.091Z,949.9230
2023-05-10T00:34:26.697Z,949.9330
2023-05-10T00:35:28.349Z,949.9408
2023-05-10T00:36:29.978Z,949.9346
2023-05-10T00:37:31.664Z,949.9523
2023-05-10T00:38:33.207Z,949.9500
2023-05-10T00:39:34.881Z,949.9592
2023-05-10T00:40:36.595Z,949.9692
2023-05-10T00:41:38.179Z,949.9654
2023-05-10T00:42:39.781Z,949.9677
2023-05-10T00:43:41.458Z,949.9785
2023-05-10T00:44:43.045Z,949.9930
2023-05-10T00:45:44.749Z,949.9962
2023-05-10T00:46:46.348Z,949.9992
2023-05-10T00:47:48.079Z,950.0162
2023-05-10T00:48:49.674Z,950.0177
2023-05-10T00:49:51.249Z,950.0346
2023-05-10T00:50:52.969Z,950.0523
2023-05-10T00:51:55.180Z,950.0500
2023-05-10T00:52:57.127Z,950.0654
2023-05-10T00:53:57.839Z,950.0646
2023-05-10T00:54:59.543Z,950.0862
2023-05-10T00:56:01.161Z,950.1000
2023-05-10T00:57:02.831Z,950.1054
2023-05-10T00:58:04.388Z,950.0992
2023-05-10T00:59:06.018Z,950.1015
2023-05-10T01:00:07.745Z,950.1115
2023-05-10T01:01:09.313Z,950.1285
2023-05-10T01:02:12.752Z,950.1154
2023-05-10T01:03:12.736Z,950.1208
2023-05-10T01:04:14.241Z,950.1208
2023-05-10T01:05:16.048Z,950.1130
2023-05-10T01:06:17.460Z,950.1177
2023-05-10T01:07:19.224Z,950.1215
2023-05-10T01:08:20.755Z,950.1215
2023-05-10T01:09:22.435Z,950.1230
2023-05-10T01:10:24.072Z,950.1292
2023-05-10T01:11:25.702Z,950.1331
2023-05-10T01:12:27.372Z,950.1362
2023-05-10T01:13:29.104Z,950.1408
2023-05-10T01:14:30.622Z,950.1370
2023-05-10T01:15:32.309Z,950.1516
2023-05-10T01:16:33.999Z,950.1462
2023-05-10T01:17:35.803Z,950.1531
2023-05-10T01:18:37.138Z,950.1516
2023-05-10T01:19:38.852Z,950.1531
2023-05-10T01:20:40.469Z,950.1469
2023-05-10T01:21:42.144Z,950.1408
2023-05-10T01:22:43.793Z,950.1315
2023-05-10T01:23:45.406Z,950.1185
2023-05-10T01:24:47.037Z,950.1115
2023-05-10T01:25:48.680Z,950.1223
2023-05-10T01:26:50.317Z,950.1377
2023-05-10T01:27:52.212Z,950.1531
2023-05-10T01:28:53.646Z,950.1677
2023-05-10T01:30:05.907Z,950.1754
2023-05-10T01:30:56.891Z,950.1838
2023-05-10T01:31:58.541Z,950.2008
2023-05-10T01:33:00.250Z,950.2047
2023-05-10T01:34:01.905Z,950.1977
2023-05-10T01:35:03.514Z,950.1938
2023-05-10T01:36:05.247Z,950.1908
2023-05-10T01:37:06.828Z,950.2054
2023-05-10T01:38:08.439Z,950.2208
2023-05-10T01:39:10.057Z,950.2231
2023-05-10T01:40:11.653Z,950.2146
2023-05-10T01:41:13.339Z,950.2231
2023-05-10T01:42:14.948Z,950.2139
2023-05-10T01:43:16.660Z,950.2161
2023-05-10T01:44:18.274Z,950.2085
2023-05-10T01:45:19.905Z,950.2208
2023-05-10T01:46:21.580Z,950.2154
2023-05-10T01:47:23.194Z,950.2146
2023-05-10T01:48:24.871Z,950.2146
2023-05-10T01:49:26.556Z,950.2054
2023-05-10T01:50:28.100Z,950.2092
2023-05-10T01:51:29.750Z,950.2062
2023-05-10T01:52:31.445Z,950.1962
2023-05-10T01:53:33.244Z,950.2115
2023-05-10T01:54:34.653Z,950.2085
2023-05-10T01:55:36.340Z,950.2246
2023-05-10T01:56:37.884Z,950.2346
2023-05-10T01:57:39.524Z,950.2323
2023-05-10T01:58:41.191Z,950.2415
2023-05-10T01:59:42.816Z,950.2385
2023-05-10T02:00:44.435Z,950.2446
2023-05-10T02:01:46.128Z,950.2346
2023-05-10T02:02:47.777Z,950.2346
2023-05-10T02:03:49.448Z,950.2261
2023-05-10T02:04:52.197Z,950.2231
2023-05-10T02:05:53.708Z,950.2023
2023-05-10T02:06:55.328Z,950.2000
2023-05-10T02:07:56.096Z,950.1900
2023-05-10T02:08:58.344Z,950.1892
2023-05-10T02:09:59.484Z,950.1992
2023-05-10T02:11:01.990Z,950.2000
2023-05-10T02:12:03.704Z,950.2085
2023-05-10T02:13:04.261Z,950.2269
2023-05-10T02:14:06.230Z,950.2354
2023-05-10T02:15:07.631Z,950.2454
2023-05-10T02:16:09.261Z,950.2446
2023-05-10T02:17:10.806Z,950.2477
2023-05-10T02:18:12.507Z,950.2423
2023-05-10T02:19:14.141Z,950.2300
2023-05-10T02:20:16.460Z,950.2200
2023-05-10T02:21:17.419Z,950.2238
2023-05-10T02:22:19.081Z,950.2330
2023-05-10T02:23:20.679Z,950.2323
2023-05-10T02:24:22.360Z,950.2261
2023-05-10T02:25:24.043Z,950.2315
2023-05-10T02:26:25.626Z,950.2230
2023-05-10T02:27:27.257Z,950.2184
2023-05-10T02:28:28.945Z,950.2085
2023-05-10T02:29:30.704Z,950.2085
2023-05-10T02:30:32.268Z,950.2184
2023-05-10T02:31:34.015Z,950.2385
2023-05-10T02:32:35.629Z,950.2323
2023-05-10T02:33:37.153Z,950.2039
2023-05-10T02:34:38.907Z,950.1931
2023-05-10T02:35:40.465Z,950.1715
2023-05-10T02:36:42.168Z,950.1723
2023-05-10T02:37:43.806Z,950.1715
2023-05-10T02:38:45.365Z,950.1885
2023-05-10T02:39:47.116Z,950.2192
2023-05-10T02:40:48.702Z,950.2238
2023-05-10T02:41:50.285Z,950.2315
2023-05-10T02:42:51.957Z,950.2254
2023-05-10T02:43:53.632Z,950.2184
2023-05-10T02:44:55.226Z,950.2292
2023-05-10T02:45:57.274Z,950.2131
2023-05-10T02:46:58.478Z,950.1877
2023-05-10T02:48:00.246Z,950.1631
2023-05-10T02:49:01.795Z,950.1447
2023-05-10T02:50:03.426Z,950.1600
2023-05-10T02:51:05.088Z,950.1877
2023-05-10T02:52:06.748Z,950.2039
2023-05-10T02:53:08.333Z,950.2223
2023-05-10T02:54:10.080Z,950.2238
2023-05-10T02:55:11.645Z,950.2177
2023-05-10T02:56:13.355Z,950.1746
2023-05-10T02:57:15.009Z,950.1592
2023-05-10T02:58:16.609Z,950.1331
2023-05-10T02:59:18.213Z,950.1569
2023-05-10T03:00:19.929Z,950.1454
2023-05-10T03:01:21.517Z,950.1715
2023-05-10T03:02:23.190Z,950.1685
2023-05-10T03:03:24.775Z,950.1661
2023-05-10T03:04:26.472Z,950.1462
2023-05-10T03:05:28.100Z,950.1577
2023-05-10T03:06:29.752Z,950.1954
2023-05-10T03:07:31.356Z,950.2231
2023-05-10T03:08:33.041Z,950.2231
2023-05-10T03:09:34.703Z,950.2146
2023-05-10T03:10:36.351Z,950.2015
2023-05-10T03:11:38.090Z,950.2123
2023-05-10T03:12:39.582Z,950.2231
2023-05-10T03:13:41.282Z,950.2269
2023-05-10T03:14:42.858Z,950.2231
2023-05-10T03:15:44.608Z,950.2577
2023-05-10T03:16:46.337Z,950.2808
2023-05-10T03:17:47.795Z,950.2916
2023-05-10T03:18:49.453Z,950.2946
2023-05-10T03:19:51.143Z,950.3085
2023-05-10T03:20:52.800Z,950.3262
2023-05-10T03:21:54.565Z,950.3208
2023-05-10T03:22:56.025Z,950.3523
2023-05-10T03:23:57.689Z,950.3800
2023-05-10T03:24:59.342Z,950.3892
2023-05-10T03:26:01.024Z,950.4061
2023-05-10T03:27:02.629Z,950.4092
2023-05-10T03:28:04.249Z,950.4046
2023-05-10T03:29:05.897Z,950.4046
2023-05-10T03:30:07.488Z,950.4084
2023-05-10T03:31:09.204Z,950.4292
2023-05-10T03:32:10.817Z,950.4370
2023-05-10T03:33:12.422Z,950.4346
2023-05-10T03:34:14.108Z,950.4261
2023-05-10T03:35:15.823Z,950.4238
2023-05-10T03:36:17.487Z,950.4131
2023-05-10T03:37:19.039Z,950.4008
2023-05-10T03:38:20.725Z,950.4069
2023-05-10T03:39:22.378Z,950.4131
2023-05-10T03:40:23.937Z,950.4131
2023-05-10T03:41:25.572Z,950.4092
2023-05-10T03:42:27.331Z,950.4138
2023-05-10T03:43:28.848Z,950.4123
2023-05-10T03:44:30.513Z,950.4092
2023-05-10T03:45:32.218Z,950.4077
2023-05-10T03:46:33.834Z,950.4246
2023-05-10T03:47:35.479Z,950.4470
2023-05-10T03:48:37.096Z,950.4492
2023-05-10T03:49:38.709Z,950.4323
2023-05-10T03:50:40.389Z,950.4169
2023-05-10T03:51:42.110Z,950.4615
2023-05-10T03:52:43.684Z,950.5000
2023-05-10T03:53:45.277Z,950.4792
2023-05-10T03:54:46.932Z,950.4823
2023-05-10T03:55:48.597Z,950.4962
2023-05-10T03:56:50.256Z,950.5185
2023-05-10T03:57:51.918Z,950.5292
2023-05-10T03:58:53.476Z,950.5354
2023-05-10T03:59:55.049Z,950.5231
2023-05-10T04:00:56.700Z,950.5254
2023-05-10T04:01:58.368Z,950.5231
2023-05-10T04:03:00.121Z,950.5285
2023-05-10T04:04:01.624Z,950.5085
2023-05-10T04:05:03.285Z,950.5046
2023-05-10T04:06:04.939Z,950.5038
2023-05-10T04:07:06.531Z,950.5054
2023-05-10T04:08:08.212Z,950.5046
2023-05-10T04:09:09.819Z,950.5108
2023-05-10T04:10:11.499Z,950.5046
2023-05-10T04:11:15.724Z,950.5139
2023-05-10T04:12:14.747Z,950.5054
2023-05-10T04:13:16.552Z,950.5046
2023-05-10T04:14:18.043Z,950.5215
2023-05-10T04:15:19.671Z,950.5185
2023-05-10T04:16:21.323Z,950.5239
2023-05-10T04:17:23.075Z,950.5108
2023-05-10T04:18:24.656Z,950.4923
2023-05-10T04:19:27.273Z,950.4838
2023-05-10T04:20:27.932Z,950.4753
2023-05-10T04:21:29.568Z,950.4746
2023-05-10T04:22:31.175Z,950.4692
2023-05-10T04:23:32.930Z,950.4746
2023-05-10T04:24:34.580Z,950.4823
2023-05-10T04:25:37.256Z,950.4708
2023-05-10T04:26:37.830Z,950.4892
2023-05-10T04:27:39.429Z,950.4738
2023-05-10T04:28:41.227Z,950.4777
2023-05-10T04:29:42.794Z,950.4777
2023-05-10T04:30:44.420Z,950.4854
2023-05-10T04:31:46.066Z,950.4892
2023-05-10T04:32:48.721Z,950.4869
2023-05-10T04:33:49.347Z,950.4708
2023-05-10T04:34:50.972Z,950.4708
2023-05-10T04:35:52.597Z,950.4915
2023-05-10T04:36:54.295Z,950.4823
2023-05-10T04:37:55.833Z,950.4923
2023-05-10T04:38:57.606Z,950.5292
2023-05-10T04:39:59.160Z,950.5385
2023-05-10T04:41:00.797Z,950.5523
2023-05-10T04:42:02.533Z,950.5385
2023-05-10T04:43:04.209Z,950.5508
2023-05-10T04:44:06.003Z,950.5477
2023-05-10T04:45:07.520Z,950.5446
2023-05-10T04:46:09.168Z,950.5323
2023-05-10T04:47:12.676Z,950.5208
2023-05-10T04:48:12.474Z,950.5369
2023-05-10T04:49:14.101Z,950.5530
2023-05-10T04:50:15.969Z,950.5538
2023-05-10T04:51:17.473Z,950.5869
2023-05-10T04:52:18.959Z,950.5992
2023-05-10T04:53:20.684Z,950.6354
2023-05-10T04:54:23.040Z,950.6477
2023-05-10T04:55:23.989Z,950.6523
2023-05-10T04:56:25.574Z,950.6592
2023-05-10T04:57:27.234Z,950.6554
2023-05-10T04:58:28.830Z,950.7077
2023-05-10T04:59:30.938Z,950.6970
2023-05-10T05:00:32.138Z,950.6608
2023-05-10T05:01:33.955Z,950.6677
2023-05-10T05:02:35.483Z,950.6923
2023-05-10T05:03:38.076Z,950.7238
2023-05-10T05:04:38.632Z,950.7423
2023-05-10T05:05:40.349Z,950.7346
2023-05-10T05:06:42.912Z,950.7285
2023-05-10T05:07:43.568Z,950.7392
2023-05-10T05:08:45.280Z,950.7554
2023-05-10T05:09:46.832Z,950.7723
2023-05-10T05:10:48.614Z,950.7731
2023-05-10T05:11:50.173Z,950.7946
2023-05-10T05:12:51.925Z,950.8208
2023-05-10T05:13:53.518Z,950.8339
2023-05-10T05:14:55.081Z,950.8854
2023-05-10T05:15:57.009Z,950.8900
2023-05-10T05:16:58.422Z,950.8715
2023-05-10T05:18:00.110Z,950.8577
2023-05-10T05:19:01.686Z,950.8831
2023-05-10T05:20:03.336Z,950.8984
2023-05-10T05:21:04.954Z,950.8831
2023-05-10T05:22:06.641Z,950.8977
2023-05-10T05:23:08.257Z,950.8862
2023-05-10T05:24:09.906Z,950.9154
2023-05-10T05:25:11.532Z,950.9531
2023-05-10T05:26:13.214Z,951.0023
2023-05-10T05:27:14.849Z,951.0100
2023-05-10T05:28:16.402Z,950.9969
2023-05-10T05:29:18.055Z,951.0070
2023-05-10T05:30:19.804Z,951.0292
2023-05-10T05:31:22.413Z,951.0108
2023-05-10T05:32:22.959Z,950.9623
2023-05-10T05:33:24.611Z,950.9761
2023-05-10T05:34:26.475Z,950.9638
2023-05-10T05:35:28.927Z,950.9615
2023-05-10T05:36:29.543Z,950.9731
2023-05-10T05:37:31.482Z,950.9738
2023-05-10T05:38:33.817Z,950.9930
2023-05-10T05:39:35.331Z,950.9962
2023-05-10T05:40:36.164Z,950.9854
2023-05-10T05:41:38.761Z,950.9892
2023-05-10T05:42:40.491Z,951.0038
2023-05-10T05:43:40.957Z,951.0223
2023-05-10T05:44:42.941Z,951.0453
2023-05-10T05:45:45.381Z,951.0054
2023-05-10T05:46:45.972Z,950.9792
2023-05-10T05:47:48.585Z,951.0170
2023-05-10T05:48:49.297Z,951.0392
2023-05-10T05:49:50.925Z,951.0508
2023-05-10T05:50:52.527Z,951.0261
2023-05-10T05:51:54.462Z,951.0131
2023-05-10T05:52:56.793Z,951.0239
2023-05-10T05:53:57.510Z,951.0623
2023-05-10T05:54:59.091Z,951.0538
2023-05-10T05:56:00.882Z,951.0254
2023-05-10T05:57:02.460Z,951.0416
2023-05-10T05:58:04.062Z,951.0284
2023-05-10T05:59:05.690Z,950.9754
2023-05-10T06:00:07.409Z,950.9300
2023-05-10T06:01:08.972Z,950.9485
2023-05-10T06:02:10.746Z,951.0146
2023-05-10T06:03:13.360Z,951.0770
2023-05-10T06:04:13.974Z,951.0662
2023-05-10T06:05:16.612Z,951.1315
2023-05-10T06:06:17.281Z,951.1331
2023-05-10T06:07:19.857Z,951.1193
2023-05-10T06:08:20.529Z,951.1169
2023-05-10T06:09:22.189Z,951.0823
2023-05-10T06:10:23.802Z,951.0992
2023-05-10T06:11:26.409Z,951.1331
2023-05-10T06:12:27.358Z,951.1631
2023-05-10T06:13:29.936Z,951.1561
2023-05-10T06:14:30.298Z,951.1392
2023-05-10T06:15:32.048Z,951.1693
2023-05-10T06:16:34.713Z,951.2046
2023-05-10T06:17:35.271Z,951.2231
2023-05-10T06:18:36.939Z,951.2446
2023-05-10T06:19:38.526Z,951.2538
2023-05-10T06:20:40.241Z,951.2985
2023-05-10T06:21:41.862Z,951.2238
2023-05-10T06:22:43.620Z,951.1992
2023-05-10T06:23:45.133Z,951.2254
2023-05-10T06:24:46.756Z,951.2538
2023-05-10T06:25:48.451Z,951.2538
2023-05-10T06:26:50.136Z,951.2469
2023-05-10T06:27:53.651Z,951.2238
2023-05-10T06:28:53.403Z,951.2631
2023-05-10T06:30:02.177Z,951.2685
2023-05-10T06:30:56.631Z,951.2777
2023-05-10T06:31:58.458Z,951.2523
2023-05-10T06:32:59.998Z,951.2323
2023-05-10T06:34:01.542Z,951.2562
2023-05-10T06:35:03.200Z,951.2985
2023-05-10T06:36:04.887Z,951.2993
2023-05-10T06:37:06.490Z,951.3031
2023-05-10T06:38:08.260Z,951.2646
2023-05-10T06:39:09.769Z,951.3077
2023-05-10T06:40:11.497Z,951.3000
2023-05-10T06:41:13.114Z,951.3270
2023-05-10T06:42:14.828Z,951.3593
2023-05-10T06:43:17.354Z,951.3192
2023-05-10T06:44:18.059Z,951.3277
2023-05-10T06:45:19.808Z,951.3454
2023-05-10T06:46:21.284Z,951.3462
2023-05-10T06:47:22.995Z,951.3900
2023-05-10T06:48:24.637Z,951.4077
2023-05-10T06:49:26.226Z,951.4016
2023-05-10T06:50:27.790Z,951.3546
2023-05-10T06:51:29.457Z,951.3546
2023-05-10T06:52:31.107Z,951.4246
2023-05-10T06:53:32.770Z,951.4131
2023-05-10T06:54:34.385Z,951.3984
2023-05-10T06:55:36.084Z,951.3946
2023-05-10T06:56:37.664Z,951.4008
2023-05-10T06:57:39.442Z,951.4031
2023-05-10T06:58:42.003Z,951.4115
2023-05-10T06:59:42.665Z,951.4146
2023-05-10T07:00:44.330Z,951.3870
2023-05-10T07:01:45.945Z,951.3877
2023-05-10T07:02:47.569Z,951.4169
2023-05-10T07:03:49.398Z,951.4246
2023-05-10T07:04:50.901Z,951.3969
2023-05-10T07:05:52.455Z,951.4054
2023-05-10T07:06:54.087Z,951.4208
2023-05-10T07:07:55.761Z,951.3992
2023-05-10T07:08:58.385Z,951.4023
2023-05-10T07:09:59.058Z,951.4023
2023-05-10T07:11:00.656Z,951.4330
2023-05-10T07:12:02.350Z,951.4469
2023-05-10T07:13:04.009Z,951.4185
2023-05-10T07:14:05.657Z,951.3885
2023-05-10T07:15:07.286Z,951.4292
2023-05-10T07:16:08.963Z,951.4315
2023-05-10T07:17:10.586Z,951.4454
2023-05-10T07:18:12.210Z,951.4808
2023-05-10T07:19:13.788Z,951.4892
2023-05-10T07:20:15.564Z,951.5008
2023-05-10T07:21:17.106Z,951.4777
2023-05-10T07:22:18.746Z,951.4930
2023-05-10T07:23:20.402Z,951.4746
2023-05-10T07:24:22.396Z,951.4923
2023-05-10T07:25:23.647Z,951.5492
2023-05-10T07:26:25.882Z,951.5500
2023-05-10T07:27:27.796Z,951.5630
2023-05-10T07:28:28.691Z,951.6161
2023-05-10T07:29:30.303Z,951.5984
2023-05-10T07:30:32.021Z,951.6177
2023-05-10T07:31:33.495Z,951.6238
2023-05-10T07:32:35.300Z,951.6161
2023-05-10T07:33:36.809Z,951.6415
2023-05-10T07:34:38.496Z,951.6938
2023-05-10T07:35:40.111Z,951.6754
2023-05-10T07:36:41.691Z,951.6653
2023-05-10T07:37:43.281Z,951.6370
2023-05-10T07:38:45.003Z,951.6554
2023-05-10T07:39:48.420Z,951.6700
2023-05-10T07:40:48.823Z,951.6931
2023-05-10T07:41:49.917Z,951.6738
2023-05-10T07:42:51.517Z,951.5923
2023-05-10T07:43:53.731Z,951.6023
2023-05-10T07:44:54.885Z,951.6800
2023-05-10T07:45:56.544Z,951.6785
2023-05-10T07:46:58.769Z,951.6915
2023-05-10T07:47:59.804Z,951.6484
2023-05-10T07:49:01.405Z,951.6700
2023-05-10T07:50:03.074Z,951.6769
2023-05-10T07:51:04.792Z,951.6877
2023-05-10T07:52:06.405Z,951.6661
2023-05-10T07:53:08.002Z,951.6846
2023-05-10T07:54:09.641Z,951.6977
2023-05-10T07:55:11.338Z,951.6915
2023-05-10T07:56:12.953Z,951.6931
2023-05-10T07:57:14.596Z,951.7007
2023-05-10T07:58:16.236Z,951.6923
2023-05-10T07:59:17.932Z,951.6854
2023-05-10T08:00:19.828Z,951.7054
2023-05-10T08:01:21.619Z,951.7131
2023-05-10T08:02:22.911Z,951.7031
2023-05-10T08:03:24.647Z,951.7215
2023-05-10T08:04:26.269Z,951.7308
2023-05-10T08:05:27.936Z,951.7585
2023-05-10T08:06:29.568Z,951.7477
2023-05-10T08:07:31.233Z,951.7469
2023-05-10T08:08:33.775Z,951.7223
2023-05-10T08:09:34.503Z,951.7200
2023-05-10T08:10:36.194Z,951.6723
2023-05-10T08:11:37.886Z,951.7231
2023-05-10T08:12:39.414Z,951.7039
2023-05-10T08:13:41.059Z,951.7061
2023-05-10T08:14:42.647Z,951.6869
2023-05-10T08:15:44.453Z,951.7023
2023-05-10T08:16:45.986Z,951.7177
2023-05-10T08:17:48.680Z,951.7269
2023-05-10T08:18:49.204Z,951.6915
2023-05-10T08:19:50.892Z,951.7046
2023-05-10T08:20:53.536Z,951.7570
2023-05-10T08:21:54.194Z,951.7277
2023-05-10T08:22:55.804Z,951.6808
2023-05-10T08:23:57.556Z,951.6954
2023-05-10T08:24:59.073Z,951.7446
2023-05-10T08:26:01.017Z,951.7554
2023-05-10T08:27:02.498Z,951.7523
2023-05-10T08:28:04.147Z,951.7039
2023-05-10T08:29:05.730Z,951.7084
2023-05-10T08:30:07.424Z,951.7231
2023-05-10T08:31:09.147Z,951.7646
2023-05-10T08:32:10.720Z,951.7431
2023-05-10T08:33:12.426Z,951.7562
2023-05-10T08:34:14.039Z,951.7438
2023-05-10T08:35:15.852Z,951.7223
2023-05-10T08:36:17.362Z,951.7469
2023-05-10T08:37:19.012Z,951.7754
2023-05-10T08:38:21.533Z,951.7492
2023-05-10T08:39:29.847Z,951.7454
2023-05-10T08:40:23.878Z,951.7592
2023-05-10T08:41:25.511Z,951.7315
2023-05-10T08:42:27.187Z,951.7338
2023-05-10T08:43:29.765Z,951.7538
2023-05-10T08:44:30.431Z,951.7570
2023-05-10T08:45:32.087Z,951.7854
2023-05-10T08:46:33.770Z,951.7785
2023-05-10T08:47:35.365Z,951.7846
2023-05-10T08:48:37.025Z,951.7854
2023-05-10T08:49:38.654Z,951.8246
2023-05-10T08:50:40.592Z,951.8546
2023-05-10T08:51:43.823Z,951.8770
2023-05-10T08:52:43.565Z,951.8654
2023-05-10T08:53:45.492Z,951.9515
2023-05-10T08:54:47.695Z,951.8877
2023-05-10T08:55:48.386Z,951.8693
2023-05-10T08:56:50.192Z,951.8977
2023-05-10T08:57:51.642Z,951.9054
2023-05-10T08:58:53.444Z,951.9185
2023-05-10T08:59:55.002Z,951.9577
2023-05-10T09:00:56.801Z,951.9815
2023-05-10T09:01:58.374Z,951.9946
2023-05-10T09:03:00.038Z,951.9915
2023-05-10T09:04:02.045Z,951.9392
2023-05-10T09:05:03.413Z,951.9646
2023-05-10T09:06:05.063Z,952.0085
2023-05-10T09:07:06.623Z,952.0392
2023-05-10T09:08:08.324Z,952.0215
2023-05-10T09:09:09.852Z,951.9700
2023-05-10T09:10:11.541Z,951.9746
2023-05-10T09:11:13.192Z,951.9877
2023-05-10T09:12:14.810Z,952.0177
2023-05-10T09:13:16.527Z,951.9900
2023-05-10T09:14:18.122Z,951.9715
2023-05-10T09:15:19.831Z,951.9823
2023-05-10T09:16:22.460Z,952.0077
2023-05-10T09:17:23.152Z,952.0169
2023-05-10T09:18:26.018Z,951.9938
2023-05-10T09:19:27.400Z,951.9677
2023-05-10T09:20:27.884Z,951.9992
2023-05-10T09:21:29.505Z,952.0108
2023-05-10T09:22:31.282Z,952.0254
2023-05-10T09:23:32.764Z,952.0162
2023-05-10T09:24:35.416Z,952.0354
2023-05-10T09:25:36.094Z,952.0354
2023-05-10T09:26:37.747Z,952.0262
2023-05-10T09:27:39.345Z,952.0369
2023-05-10T09:28:41.088Z,952.0000
2023-05-10T09:29:42.624Z,952.0169
2023-05-10T09:30:44.340Z,952.0530
2023-05-10T09:31:45.928Z,952.0715
2023-05-10T09:32:47.643Z,952.0485
2023-05-10T09:33:49.214Z,951.9754
2023-05-10T09:34:50.847Z,951.9808
2023-05-10T09:35:52.586Z,952.0261
2023-05-10T09:36:54.121Z,952.0453
2023-05-10T09:37:55.861Z,952.0100
2023-05-10T09:38:57.535Z,951.9631
2023-05-10T09:39:59.076Z,951.9654
2023-05-10T09:41:00.817Z,951.9692
2023-05-10T09:42:02.362Z,952.0054
2023-05-10T09:43:04.037Z,952.0046
2023-05-10T09:44:05.686Z,951.9585
2023-05-10T09:45:07.320Z,951.9400
2023-05-10T09:46:09.003Z,951.9631
2023-05-10T09:47:10.564Z,951.9792
2023-05-10T09:48:12.462Z,951.9792
2023-05-10T09:49:13.853Z,951.9631
2023-05-10T09:50:15.563Z,951.9431
2023-05-10T09:51:17.235Z,952.0000
2023-05-10T09:52:18.834Z,952.0038
2023-05-10T09:53:20.468Z,952.0038
2023-05-10T09:54:22.110Z,952.0054
2023-05-10T09:55:23.765Z,951.9838
2023-05-10T09:56:25.431Z,951.9946
2023-05-10T09:57:27.038Z,952.0246
2023-05-10T09:58:28.733Z,952.0139
2023-05-10T09:59:30.325Z,951.9892
2023-05-10T10:00:31.975Z,951.9785
2023-05-10T10:01:33.705Z,951.9661
2023-05-10T10:02:35.283Z,951.9584
2023-05-10T10:03:36.936Z,951.9792
2023-05-10T10:04:38.545Z,951.9569
2023-05-10T10:05:40.274Z,951.9431
2023-05-10T10:06:41.831Z,951.9554
2023-05-10T10:07:43.476Z,951.9554
2023-05-10T10:08:45.192Z,951.9838
2023-05-10T10:09:46.827Z,951.9823
2023-05-10T10:10:48.437Z,951.9946
2023-05-10T10:11:50.064Z,951.9646
2023-05-10T10:12:51.666Z,951.9938
2023-05-10T10:13:53.362Z,952.0223
2023-05-10T10:14:54.971Z,952.0200
2023-05-10T10:15:56.627Z,951.9931
2023-05-10T10:17:06.787Z,952.0115
2023-05-10T10:18:00.044Z,951.9962
2023-05-10T10:19:01.700Z,952.0346
2023-05-10T10:20:03.266Z,952.0538
2023-05-10T10:21:04.804Z,952.0346
2023-05-10T10:22:06.583Z,952.0054
2023-05-10T10:23:08.134Z,952.0300
2023-05-10T10:24:09.857Z,952.0038
2023-05-10T10:25:11.381Z,951.9977
2023-05-10T10:26:13.106Z,951.9938
2023-05-10T10:27:14.692Z,952.0146
2023-05-10T10:28:16.271Z,952.0185
2023-05-10T10:29:17.991Z,952.0423
2023-05-10T10:30:19.731Z,952.0177
2023-05-10T10:31:21.323Z,951.9938
2023-05-10T10:32:23.022Z,952.0108
2023-05-10T10:33:28.739Z,952.0239
2023-05-10T10:34:26.234Z,952.0331
2023-05-10T10:35:27.890Z,952.0369
2023-05-10T10:36:29.554Z,952.0254
2023-05-10T10:37:31.096Z,952.0015
2023-05-10T10:38:32.773Z,951.9969
2023-05-10T10:39:34.467Z,951.9815
2023-05-10T10:40:36.083Z,951.9592
2023-05-10T10:41:37.717Z,951.9454
2023-05-10T10:42:39.358Z,951.9731
2023-05-10T10:43:40.997Z,951.9600
2023-05-10T10:44:42.614Z,951.9761
2023-05-10T10:45:44.238Z,951.9600
2023-05-10T10:46:45.946Z,951.9246
2023-05-10T10:47:47.642Z,951.9684
2023-05-10T10:48:49.139Z,951.9930
2023-05-10T10:49:51.547Z,952.0123
2023-05-10T10:50:52.611Z,951.9946
2023-05-10T10:51:54.079Z,951.9554
2023-05-10T10:52:55.830Z,951.9592
2023-05-10T10:53:57.402Z,951.9684
2023-05-10T10:54:59.175Z,951.9723
2023-05-10T10:56:00.744Z,951.9730
2023-05-10T10:57:02.348Z,951.9554
2023-05-10T10:58:03.980Z,951.9431
2023-05-10T10:59:05.653Z,951.9492
2023-05-10T11:00:07.295Z,951.9723
2023-05-10T11:01:08.939Z,951.9523
2023-05-10T11:02:10.587Z,951.9838
2023-05-10T11:03:12.246Z,951.9800
2023-05-10T11:04:14.052Z,951.9623
2023-05-10T11:05:15.602Z,951.9500
2023-05-10T11:06:17.152Z,951.9477
2023-05-10T11:07:18.820Z,951.9646
2023-05-10T11:08:20.400Z,951.9753
2023-05-10T11:09:21.982Z,951.9869
2023-05-10T11:10:24.038Z,951.9523
2023-05-10T11:11:25.286Z,951.9238
2023-05-10T11:12:27.105Z,951.9177
2023-05-10T11:13:28.567Z,951.9446
2023-05-10T11:14:30.363Z,951.9754
2023-05-10T11:15:31.988Z,951.9900
2023-05-10T11:16:33.553Z,951.9577
2023-05-10T11:17:35.231Z,951.8746
2023-05-10T11:18:36.916Z,951.8862
2023-05-10T11:19:38.448Z,951.9069
2023-05-10T11:20:40.203Z,951.9223
2023-05-10T11:21:41.718Z,951.9115
2023-05-10T11:22:43.471Z,951.8892
2023-05-10T11:23:45.066Z,951.8800
2023-05-10T11:24:47.860Z,951.8738
2023-05-10T11:25:48.382Z,951.8962
2023-05-10T11:26:50.000Z,951.9300
2023-05-10T11:27:51.603Z,951.9031
2023-05-10T11:28:53.280Z,951.8870
2023-05-10T11:29:54.881Z,951.8931
2023-05-10T11:30:56.625Z,951.9038
2023-05-10T11:31:58.183Z,951.9323
2023-05-10T11:32:59.816Z,951.9246
2023-05-10T11:34:01.464Z,951.9377
2023-05-10T11:35:03.090Z,951.9261
2023-05-10T11:36:04.810Z,951.9370
2023-05-10T11:37:06.354Z,951.9462
2023-05-10T11:38:08.031Z,951.9223
2023-05-10T11:39:09.667Z,951.9454
2023-05-10T11:40:11.386Z,951.9485
2023-05-10T11:41:12.966Z,951.9600
2023-05-10T11:42:15.362Z,951.9338
2023-05-10T11:43:16.209Z,951.9315
2023-05-10T11:44:17.923Z,951.9108
2023-05-10T11:45:19.549Z,951.9185
2023-05-10T11:46:21.307Z,951.9370
2023-05-10T11:47:22.918Z,951.9462
2023-05-10T11:48:24.490Z,951.9454
2023-05-10T11:49:26.159Z,951.9354
2023-05-10T11:50:27.724Z,951.9362
2023-05-10T11:51:29.489Z,951.9546
2023-05-10T11:52:31.086Z,951.9753
2023-05-10T11:53:32.677Z,951.9631
2023-05-10T11:54:34.433Z,951.9600
2023-05-10T11:55:35.939Z,951.9546
2023-05-10T11:56:37.666Z,951.9623
2023-05-10T11:57:39.564Z,951.9547
2023-05-10T11:58:40.930Z,951.9354
2023-05-10T11:59:43.331Z,951.9431
2023-05-10T12:00:44.173Z,951.9608
2023-05-10T12:01:45.903Z,951.9785
2023-05-10T12:02:47.585Z,951.9615
2023-05-10T12:03:49.226Z,951.9470